MDT,Max TemperatureF,Mean TemperatureF,Min TemperatureF,Max Dew PointF,MeanDew PointF,Min DewpointF,Max Humidity, Mean Humidity, Min Humidity, Max Sea Level PressureIn, Mean Sea Level PressureIn, Min Sea Level PressureIn, Max VisibilityMiles, Mean VisibilityMiles, Min VisibilityMiles, Max Wind SpeedMPH, Mean Wind SpeedMPH, Max Gust SpeedMPH,PrecipitationIn, CloudCover, Events, WindDirDegrees
2013-4-1,82,61,40,24,18,10,40,24,7,29.95,29.84,29.74,10,10,9,22,10,35,0.00,0,,261
2013-4-2,76,61,46,23,16,4,34,20,6,29.83,29.77,29.69,10,10,6,31,13,39,0.00,0,,262
2013-4-3,76,58,39,27,21,14,49,31,12,29.98,29.91,29.82,10,10,10,20,6,32,0.00,0,,277
2013-4-4,79,60,41,21,15,8,39,23,7,30.06,29.98,29.93,10,10,10,14,5,20,0.00,0,,145
2013-4-5,85,67,48,22,12,6,22,14,5,29.94,29.84,29.71,10,10,10,23,8,29,0.00,0,,302
2013-4-6,80,62,44,27,20,16,40,25,9,29.90,29.81,29.74,10,10,8,25,11,36,0.00,0,,261
2013-4-7,82,63,44,27,21,16,31,21,11,29.81,29.72,29.64,10,10,10,26,12,37,0.00,0,,267
2013-4-8,81,66,52,34,23,16,36,17,9,29.64,29.52,29.34,10,6,1,34,17,45,0.00,2,,233
2013-4-9,62,52,42,38,29,19,76,48,20,29.80,29.58,29.31,10,6,1,45,20,61,T,3,Rain,266
2013-4-10,63,48,33,30,24,17,75,46,17,29.89,29.83,29.78,10,10,10,28,12,35,0.00,2,,282
2013-4-11,76,55,34,21,16,8,47,28,8,29.91,29.79,29.66,10,10,10,26,11,32,0.00,0,,275
2013-4-12,76,60,44,28,19,14,34,22,10,29.77,29.71,29.66,10,10,10,13,6,17,0.00,0,,296
2013-4-13,81,64,46,22,19,16,34,22,9,29.74,29.66,29.59,10,10,10,26,9,37,0.00,1,,267
2013-4-14,81,66,51,25,21,18,29,20,10,29.70,29.61,29.54,10,10,8,35,17,43,0.00,0,,257
2013-4-15,82,67,52,32,24,19,45,28,10,29.70,29.64,29.57,10,10,5,30,15,40,0.00,0,,250
2013-4-16,83,69,55,32,18,6,36,21,6,29.84,29.67,29.59,10,9,2,33,17,46,0.00,0,,250
2013-4-17,74,59,44,26,18,9,32,21,9,29.85,29.72,29.55,10,4,0,44,20,56,0.00,4,Rain,262
2013-4-18,66,51,35,20,7,-6,48,27,6,30.09,29.95,29.85,10,10,10,23,8,32,0.00,0,,307
2013-4-19,67,50,32,2,-4,-10,23,14,5,30.21,30.09,29.94,10,10,10,15,7,20,0.00,0,,125
2013-4-20,79,56,32,10,0,-9,19,12,5,29.94,29.85,29.75,10,10,8,30,12,40,0.00,0,,276
2013-4-21,84,63,44,14,10,5,26,13,6,30.01,29.90,29.83,10,10,10,18,8,30,0.00,0,,273
2013-4-22,87,66,45,13,9,6,22,12,5,29.92,29.80,29.68,10,10,10,23,11,33,0.00,0,,261
2013-4-23,85,66,47,20,12,8,24,15,6,29.80,29.73,29.66,10,10,7,35,14,45,0.00,0,,272
2013-4-24,78,61,44,25,22,15,45,29,12,30.03,29.92,29.85,10,10,9,18,8,24,0.00,0,,99
2013-4-25,87,71,55,32,21,5,35,20,5,29.94,29.84,29.71,10,9,2,32,12,41,0.00,0,,246
2013-4-26,81,61,40,20,13,4,34,20,5,30.02,29.97,29.89,10,10,10,24,8,30,0.00,0,,256
2013-4-27,84,65,45,23,12,5,26,16,6,30.04,29.94,29.85,10,10,10,16,6,23,0.00,0,,97
2013-4-28,86,65,43,22,9,1,33,19,4,29.88,29.81,29.70,10,10,10,15,5,22,0.00,0,,304
2013-4-29,90,68,45,9,4,1,18,9,4,29.83,29.69,29.58,10,10,5,17,7,32,0.00,0,,253
2013-4-30,90,72,55,16,11,5,18,10,4,29.69,29.63,29.59,10,10,10,21,11,30,0.00,0,,269